createdAt,value
2023-05-13T00:01:10.784Z,54.33
2023-05-13T00:03:37.901Z,54.02
2023-05-13T00:06:04.465Z,54.16
2023-05-13T00:08:30.804Z,54.00
2023-05-13T00:10:57.049Z,54.20
2023-05-13T00:13:23.270Z,54.11
2023-05-13T00:15:49.631Z,54.15
2023-05-13T00:18:15.942Z,54.30
2023-05-13T00:20:42.942Z,54.04
2023-05-13T00:23:09.842Z,54.23
2023-05-13T00:25:37.804Z,54.41
2023-05-13T00:28:04.050Z,54.39
2023-05-13T00:30:30.298Z,53.96
2023-05-13T00:32:57.495Z,54.00
2023-05-13T00:35:23.811Z,54.25
2023-05-13T00:37:50.104Z,54.14
2023-05-13T00:40:17.802Z,54.11
2023-05-13T00:42:44.070Z,54.37
2023-05-13T00:45:10.908Z,53.79
2023-05-13T00:47:39.097Z,54.27
2023-05-13T00:50:05.365Z,54.18
2023-05-13T00:52:31.803Z,53.91
2023-05-13T00:55:00.119Z,53.98
2023-05-13T00:57:26.576Z,54.17
2023-05-13T00:59:52.807Z,54.11
2023-05-13T01:02:19.099Z,54.16
2023-05-13T01:04:46.816Z,54.11
2023-05-13T01:07:13.074Z,53.94
2023-05-13T01:09:39.387Z,53.90
2023-05-13T01:12:05.900Z,53.95
2023-05-13T01:14:32.169Z,53.85
2023-05-13T01:16:58.943Z,53.87
2023-05-13T01:19:25.446Z,53.95
2023-05-13T01:21:51.862Z,54.07
2023-05-13T01:24:18.129Z,53.85
2023-05-13T01:26:44.440Z,54.15
2023-05-13T01:29:10.676Z,54.21
2023-05-13T01:31:36.936Z,54.18
2023-05-13T01:34:03.251Z,54.19
2023-05-13T01:36:29.489Z,53.85
2023-05-13T01:38:55.800Z,53.72
2023-05-13T01:41:22.038Z,54.10
2023-05-13T01:43:48.392Z,53.99
2023-05-13T01:46:14.708Z,54.02
2023-05-13T01:48:40.941Z,54.25
2023-05-13T01:51:07.393Z,53.97
2023-05-13T01:53:33.673Z,53.80
2023-05-13T01:56:00.019Z,54.05
2023-05-13T01:58:26.965Z,53.77
2023-05-13T02:00:53.229Z,53.86
2023-05-13T02:03:20.990Z,53.98
2023-05-13T02:05:47.313Z,54.10
2023-05-13T02:08:13.522Z,54.02
2023-05-13T02:10:39.785Z,54.07
2023-05-13T02:13:06.053Z,54.01
2023-05-13T02:15:32.521Z,53.69
2023-05-13T02:17:58.854Z,53.68
2023-05-13T02:20:25.580Z,53.96
2023-05-13T02:22:52.173Z,53.79
2023-05-13T02:25:18.517Z,53.70
2023-05-13T02:27:44.876Z,54.11
2023-05-13T02:30:11.118Z,53.97
2023-05-13T02:32:37.396Z,53.71
2023-05-13T02:35:03.704Z,53.94
2023-05-13T02:37:30.024Z,53.46
2023-05-13T02:39:56.303Z,53.68
2023-05-13T02:42:22.551Z,53.89
2023-05-13T02:44:48.846Z,53.80
2023-05-13T02:47:15.745Z,53.79
2023-05-13T02:49:42.012Z,53.71
2023-05-13T02:52:08.315Z,53.59
2023-05-13T02:54:34.547Z,53.63
2023-05-13T02:57:00.792Z,53.81
2023-05-13T02:59:29.063Z,53.52
2023-05-13T03:01:55.312Z,53.76
2023-05-13T03:04:21.552Z,53.65
2023-05-13T03:06:52.697Z,53.69
2023-05-13T03:09:18.996Z,53.81
2023-05-13T03:11:50.928Z,53.60
2023-05-13T03:14:23.289Z,53.63
2023-05-13T03:16:49.520Z,53.79
2023-05-13T03:19:15.849Z,53.82
2023-05-13T03:21:42.173Z,53.79
2023-05-13T03:24:08.448Z,53.82
2023-05-13T03:26:34.705Z,53.85
2023-05-13T03:29:02.277Z,53.77
2023-05-13T03:31:28.765Z,53.42
2023-05-13T03:33:55.049Z,53.49
2023-05-13T03:36:22.249Z,53.69
2023-05-13T03:38:48.640Z,53.58
2023-05-13T03:41:14.935Z,53.81
2023-05-13T03:43:41.184Z,53.65
2023-05-13T03:46:07.823Z,53.61
2023-05-13T03:48:34.220Z,53.50
2023-05-13T03:51:00.459Z,53.54
2023-05-13T03:53:26.756Z,53.54
2023-05-13T03:55:53.600Z,53.57
2023-05-13T03:58:20.118Z,53.54
2023-05-13T04:00:46.449Z,53.30
2023-05-13T04:03:12.800Z,53.56
2023-05-13T04:05:39.387Z,53.27
2023-05-13T04:08:05.675Z,53.22
2023-05-13T04:10:31.944Z,53.29
2023-05-13T04:13:02.697Z,53.55
2023-05-13T04:15:28.968Z,53.37
2023-05-13T04:17:55.233Z,53.44
2023-05-13T04:20:21.724Z,53.37
2023-05-13T04:22:48.123Z,53.56
2023-05-13T04:25:14.373Z,53.59
2023-05-13T04:27:41.770Z,53.53
2023-05-13T04:30:08.068Z,53.48
2023-05-13T04:32:34.362Z,53.40
2023-05-13T04:35:01.335Z,53.71
2023-05-13T04:37:28.948Z,53.70
2023-05-13T04:39:55.406Z,53.46
2023-05-13T04:42:21.661Z,53.42
2023-05-13T04:44:47.913Z,53.40
2023-05-13T04:47:14.183Z,53.31
2023-05-13T04:49:40.424Z,53.61
2023-05-13T04:52:07.038Z,53.34
2023-05-13T04:54:33.539Z,53.49
2023-05-13T04:56:59.792Z,53.72
2023-05-13T04:59:26.059Z,53.40
2023-05-13T05:01:52.369Z,53.55
2023-05-13T05:04:18.757Z,53.44
2023-05-13T05:06:45.187Z,53.51
2023-05-13T05:09:13.460Z,53.61
2023-05-13T05:11:39.688Z,53.77
2023-05-13T05:14:05.917Z,53.75
2023-05-13T05:16:32.265Z,53.36
2023-05-13T05:18:58.577Z,53.54
2023-05-13T05:21:26.360Z,53.63
2023-05-13T05:23:52.601Z,53.69
2023-05-13T05:26:18.906Z,53.54
2023-05-13T05:28:45.195Z,53.67
2023-05-13T05:31:11.509Z,53.40
2023-05-13T05:33:37.787Z,53.54
2023-05-13T05:36:04.041Z,53.64
2023-05-13T05:38:30.292Z,53.58
2023-05-13T05:40:56.635Z,53.77
2023-05-13T05:43:22.894Z,53.82
2023-05-13T05:45:49.906Z,53.60
2023-05-13T05:48:16.149Z,53.88
2023-05-13T05:50:42.600Z,53.72
2023-05-13T05:53:09.898Z,53.91
2023-05-13T05:55:36.157Z,53.54
2023-05-13T05:58:02.402Z,53.76
2023-05-13T06:00:28.710Z,53.72
2023-05-13T06:02:55.451Z,53.67
2023-05-13T06:05:21.777Z,53.80
2023-05-13T06:07:48.683Z,53.61
2023-05-13T06:10:15.024Z,53.62
2023-05-13T06:12:41.277Z,53.57
2023-05-13T06:15:07.517Z,53.81
2023-05-13T06:17:33.874Z,53.80
2023-05-13T06:20:01.447Z,53.74
2023-05-13T06:22:27.750Z,53.60
2023-05-13T06:24:56.634Z,53.75
2023-05-13T06:27:22.930Z,53.76
2023-05-13T06:29:49.175Z,53.62
2023-05-13T06:32:15.411Z,53.77
2023-05-13T06:34:44.612Z,53.72
2023-05-13T06:37:10.893Z,53.46
2023-05-13T06:39:37.947Z,53.35
2023-05-13T06:42:04.187Z,53.50
2023-05-13T06:44:30.446Z,53.57
2023-05-13T06:46:56.716Z,53.64
2023-05-13T06:49:22.999Z,53.55
2023-05-13T06:51:49.265Z,53.67
2023-05-13T06:54:15.520Z,53.76
2023-05-13T06:56:41.801Z,53.54
2023-05-13T06:59:08.076Z,53.39
2023-05-13T07:01:34.321Z,53.37
2023-05-13T07:04:00.746Z,53.48
2023-05-13T07:06:27.053Z,53.40
2023-05-13T07:08:53.292Z,53.31
2023-05-13T07:11:19.517Z,53.56
2023-05-13T07:13:45.787Z,53.64
2023-05-13T07:16:13.125Z,53.66
2023-05-13T07:18:39.445Z,53.52
2023-05-13T07:21:05.914Z,53.44
2023-05-13T07:23:32.328Z,53.63
2023-05-13T07:25:58.581Z,53.24
2023-05-13T07:28:24.824Z,53.30
2023-05-13T07:30:52.724Z,53.58
2023-05-13T07:33:19.016Z,53.45
2023-05-13T07:35:46.476Z,53.64
2023-05-13T07:38:12.764Z,53.16
2023-05-13T07:40:39.533Z,53.39
2023-05-13T07:43:05.767Z,53.55
2023-05-13T07:45:32.021Z,53.18
2023-05-13T07:47:58.331Z,53.29
2023-05-13T07:50:24.950Z,53.50
2023-05-13T07:52:51.207Z,53.26
2023-05-13T07:55:17.511Z,53.36
2023-05-13T07:57:44.262Z,53.54
2023-05-13T08:00:10.495Z,53.30
2023-05-13T08:02:37.721Z,53.18
2023-05-13T08:05:04.182Z,53.31
2023-05-13T08:07:30.527Z,53.25
2023-05-13T08:09:56.808Z,52.85
2023-05-13T08:12:23.067Z,53.26
2023-05-13T08:14:49.331Z,53.12
2023-05-13T08:17:15.632Z,52.94
2023-05-13T08:19:41.886Z,53.18
2023-05-13T08:22:08.118Z,52.82
2023-05-13T08:24:35.227Z,52.92
2023-05-13T08:27:01.490Z,52.72
2023-05-13T08:29:28.251Z,52.67
2023-05-13T08:31:54.594Z,52.94
2023-05-13T08:34:21.028Z,52.74
2023-05-13T08:36:47.277Z,52.81
2023-05-13T08:39:13.782Z,52.80
2023-05-13T08:41:40.109Z,52.52
2023-05-13T08:44:06.370Z,52.67
2023-05-13T08:46:32.665Z,52.45
2023-05-13T08:49:00.023Z,52.65
2023-05-13T08:51:26.282Z,52.72
2023-05-13T08:53:52.533Z,52.81
2023-05-13T08:56:18.781Z,52.61
2023-05-13T08:58:45.040Z,52.71
2023-05-13T09:01:11.332Z,52.40
2023-05-13T09:03:37.641Z,52.42
2023-05-13T09:06:03.909Z,52.58
2023-05-13T09:08:30.155Z,52.38
2023-05-13T09:10:56.482Z,52.09
2023-05-13T09:13:22.791Z,52.41
2023-05-13T09:15:49.077Z,52.18
2023-05-13T09:18:18.022Z,52.36
2023-05-13T09:20:45.602Z,52.41
2023-05-13T09:23:11.882Z,52.35
2023-05-13T09:25:38.232Z,52.30
2023-05-13T09:28:04.513Z,52.23
2023-05-13T09:30:30.744Z,52.08
2023-05-13T09:32:57.059Z,52.16
2023-05-13T09:35:23.448Z,52.26
2023-05-13T09:37:49.721Z,52.03
2023-05-13T09:40:16.512Z,51.97
2023-05-13T09:42:42.859Z,51.75
2023-05-13T09:45:09.255Z,51.69
2023-05-13T09:47:35.796Z,52.21
2023-05-13T09:50:02.159Z,52.03
2023-05-13T09:55:37.690Z,51.77
2023-05-13T09:58:03.968Z,51.77
2023-05-13T10:00:33.158Z,51.47
2023-05-13T10:03:00.293Z,51.30
2023-05-13T10:05:26.622Z,50.54
2023-05-13T10:07:52.880Z,49.99
2023-05-13T10:10:21.674Z,50.02
2023-05-13T10:12:48.001Z,50.26
2023-05-13T10:15:14.277Z,50.03
2023-05-13T10:17:40.537Z,49.91
2023-05-13T10:20:07.353Z,49.61
2023-05-13T10:22:33.663Z,49.15
2023-05-13T10:24:59.908Z,48.10
2023-05-13T10:27:26.908Z,47.12
2023-05-13T10:29:53.183Z,47.76
2023-05-13T10:32:20.456Z,48.18
2023-05-13T10:34:46.876Z,47.66
2023-05-13T10:37:13.181Z,47.48
2023-05-13T10:39:39.463Z,47.19
2023-05-13T10:42:05.729Z,47.21
2023-05-13T10:44:32.141Z,47.21
2023-05-13T10:46:58.402Z,47.30
2023-05-13T10:49:24.653Z,47.41
2023-05-13T10:51:50.949Z,47.36
2023-05-13T10:54:17.186Z,47.71
2023-05-13T10:56:43.754Z,47.16
2023-05-13T10:59:10.163Z,47.75
2023-05-13T11:01:36.459Z,47.81
2023-05-13T11:04:03.462Z,47.55
2023-05-13T11:06:29.844Z,47.70
2023-05-13T11:08:56.445Z,47.96
2023-05-13T11:11:22.890Z,47.60
2023-05-13T11:13:49.125Z,47.41
2023-05-13T11:16:15.481Z,47.84
2023-05-13T11:18:41.768Z,47.91
2023-05-13T11:21:09.404Z,48.26
2023-05-13T11:23:35.758Z,48.42
2023-05-13T11:26:02.065Z,48.23
2023-05-13T11:28:28.326Z,48.42
2023-05-13T11:30:54.583Z,47.81
2023-05-13T11:33:20.855Z,47.98
2023-05-13T11:35:47.274Z,47.86
2023-05-13T11:38:13.686Z,48.14
2023-05-13T11:40:43.489Z,48.36
2023-05-13T11:43:09.805Z,48.21
2023-05-13T11:45:36.148Z,48.60
2023-05-13T11:48:03.707Z,48.56
2023-05-13T11:50:30.841Z,48.56
2023-05-13T11:52:57.403Z,62.55
2023-05-13T11:55:23.779Z,48.77
2023-05-13T11:57:50.186Z,48.40
2023-05-13T12:00:16.723Z,48.34
2023-05-13T12:02:43.058Z,48.20
2023-05-13T12:05:09.498Z,47.70
2023-05-13T12:07:36.088Z,47.56
2023-05-13T12:10:02.349Z,47.60
2023-05-13T12:12:28.617Z,47.76
2023-05-13T12:14:54.957Z,47.68
2023-05-13T12:17:21.259Z,47.54
2023-05-13T12:19:47.528Z,47.61
2023-05-13T12:22:13.946Z,47.06
2023-05-13T12:24:40.179Z,47.35
2023-05-13T12:27:07.214Z,46.97
2023-05-13T12:29:34.468Z,47.12
2023-05-13T12:32:00.921Z,47.55
2023-05-13T12:34:27.156Z,47.37
2023-05-13T12:36:53.487Z,47.20
2023-05-13T12:39:20.353Z,47.31
2023-05-13T12:41:48.011Z,47.62
2023-05-13T12:44:14.284Z,47.50
2023-05-13T12:46:42.809Z,47.30
2023-05-13T12:49:10.191Z,47.51
2023-05-13T12:51:38.374Z,47.46
2023-05-13T12:54:04.684Z,47.71
2023-05-13T12:56:30.937Z,47.40
2023-05-13T12:58:57.234Z,47.24
2023-05-13T13:01:23.528Z,47.03
2023-05-13T13:03:51.291Z,47.54
2023-05-13T13:06:17.658Z,47.31
2023-05-13T13:08:45.073Z,47.35
2023-05-13T13:11:11.432Z,47.68
2023-05-13T13:13:39.385Z,47.53
2023-05-13T13:16:07.213Z,47.62
2023-05-13T13:18:33.621Z,47.85
2023-05-13T13:20:59.925Z,47.56
2023-05-13T13:23:26.166Z,47.97
2023-05-13T13:25:54.569Z,47.43
2023-05-13T13:28:20.899Z,47.29
2023-05-13T13:30:47.367Z,47.37
2023-05-13T13:33:13.761Z,47.08
2023-05-13T13:35:40.033Z,47.06
2023-05-13T13:38:06.290Z,47.28
2023-05-13T13:40:32.555Z,47.24
2023-05-13T13:42:59.364Z,47.31
2023-05-13T13:45:25.671Z,47.57
2023-05-13T13:47:53.505Z,47.63
2023-05-13T13:50:19.988Z,48.08
2023-05-13T13:52:46.559Z,48.16
2023-05-13T13:55:14.871Z,48.19
2023-05-13T13:57:41.131Z,48.43
2023-05-13T14:00:07.503Z,48.27
2023-05-13T14:02:34.027Z,48.24
2023-05-13T14:05:01.185Z,48.07
2023-05-13T14:07:27.569Z,48.32
2023-05-13T14:09:55.038Z,48.12
2023-05-13T14:12:21.280Z,48.79
2023-05-13T14:14:47.540Z,49.34
2023-05-13T14:17:14.510Z,49.92
2023-05-13T14:19:40.983Z,50.17
2023-05-13T14:22:07.873Z,50.47
2023-05-13T14:27:18.366Z,51.35
2023-05-13T14:29:44.626Z,51.60
2023-05-13T14:32:12.231Z,52.21
2023-05-13T14:37:22.101Z,52.30
2023-05-13T14:39:50.119Z,52.86
2023-05-13T14:45:07.880Z,51.19
2023-05-13T14:47:34.206Z,51.20
2023-05-13T14:50:00.500Z,51.05
2023-05-13T14:52:26.790Z,51.07
2023-05-13T14:54:55.268Z,51.15
2023-05-13T14:57:21.562Z,51.66
2023-05-13T14:59:47.988Z,51.60
2023-05-13T15:02:14.350Z,51.91
2023-05-13T15:04:40.659Z,51.49
2023-05-13T15:07:11.543Z,51.89
2023-05-13T15:09:37.841Z,52.58
2023-05-13T15:12:04.107Z,53.28
2023-05-13T15:14:31.118Z,53.77
2023-05-13T15:16:57.478Z,53.33
2023-05-13T15:19:24.120Z,54.00
2023-05-13T15:21:50.373Z,54.91
2023-05-13T15:24:16.803Z,54.89
2023-05-13T15:26:43.030Z,54.96
2023-05-13T15:29:09.298Z,55.33
2023-05-13T15:31:35.650Z,56.17
2023-05-13T15:34:03.817Z,56.10
2023-05-13T15:36:30.884Z,55.97
2023-05-13T15:38:57.239Z,55.33
2023-05-13T15:41:23.594Z,57.07
2023-05-13T15:43:49.846Z,56.71
2023-05-13T15:46:16.172Z,55.93
2023-05-13T15:48:45.208Z,56.56
2023-05-13T15:51:11.473Z,56.66
2023-05-13T15:53:38.332Z,57.03
2023-05-13T15:56:07.134Z,57.00
2023-05-13T15:58:33.703Z,56.33
2023-05-13T16:00:59.956Z,57.31
2023-05-13T16:03:27.389Z,56.82
2023-05-13T16:05:53.707Z,57.04
2023-05-13T16:08:19.959Z,57.17
2023-05-13T16:10:46.243Z,57.45
2023-05-13T16:13:12.596Z,57.26
2023-05-13T16:15:39.188Z,57.44
2023-05-13T16:18:06.290Z,57.68
2023-05-13T16:20:32.577Z,57.75
2023-05-13T16:22:59.986Z,58.14
2023-05-13T16:25:27.232Z,58.37
2023-05-13T16:27:53.453Z,58.47
2023-05-13T16:30:19.752Z,59.17
2023-05-13T16:32:48.011Z,59.54
2023-05-13T16:35:16.450Z,59.66
2023-05-13T16:37:44.799Z,59.27
2023-05-13T16:40:11.045Z,60.01
2023-05-13T16:42:37.301Z,60.41
2023-05-13T16:45:04.091Z,60.18
2023-05-13T16:47:31.287Z,60.26
2023-05-13T16:49:58.860Z,60.21
2023-05-13T16:52:25.102Z,60.67
2023-05-13T16:54:51.617Z,60.37
2023-05-13T16:57:19.167Z,60.31
2023-05-13T16:59:45.410Z,60.01
2023-05-13T17:02:11.666Z,60.29
2023-05-13T17:04:37.935Z,60.76
2023-05-13T17:07:04.191Z,61.18
2023-05-13T17:09:30.425Z,61.25
2023-05-13T17:11:56.831Z,61.66
2023-05-13T17:14:23.085Z,61.50
2023-05-13T17:16:49.376Z,62.48
2023-05-13T17:19:15.860Z,62.56
2023-05-13T17:21:42.234Z,62.71
2023-05-13T17:24:08.501Z,63.52
2023-05-13T17:26:36.210Z,62.78
2023-05-13T17:29:04.617Z,63.43
2023-05-13T17:31:30.891Z,63.61
2023-05-13T17:33:57.210Z,63.91
2023-05-13T17:36:23.474Z,63.95
2023-05-13T17:38:49.781Z,64.54
2023-05-13T17:41:16.030Z,64.29
2023-05-13T17:43:44.382Z,64.63
2023-05-13T17:46:11.468Z,65.08
2023-05-13T17:48:37.812Z,65.25
2023-05-13T17:51:04.220Z,64.56
2023-05-13T17:53:31.681Z,65.04
2023-05-13T17:56:00.062Z,65.12
2023-05-13T17:58:29.117Z,64.48
2023-05-13T18:00:56.731Z,65.58
2023-05-13T18:03:22.975Z,65.64
2023-05-13T18:05:49.276Z,65.75
2023-05-13T18:08:15.672Z,65.71
2023-05-13T18:10:42.656Z,65.40
2023-05-13T18:13:09.012Z,66.60
2023-05-13T18:15:35.234Z,65.93
2023-05-13T18:18:01.563Z,66.04
2023-05-13T18:20:28.001Z,66.42
2023-05-13T18:22:54.285Z,66.18
2023-05-13T18:25:20.558Z,66.19
2023-05-13T18:27:46.857Z,66.08
2023-05-13T18:30:14.044Z,66.09
2023-05-13T18:32:40.344Z,64.80
2023-05-13T18:35:06.641Z,64.48
2023-05-13T18:37:34.708Z,62.64
2023-05-13T18:40:01.057Z,62.48
2023-05-13T18:42:27.294Z,62.69
2023-05-13T18:44:55.325Z,63.08
2023-05-13T18:47:21.571Z,63.53
2023-05-13T18:49:47.840Z,63.39
2023-05-13T18:52:16.407Z,63.66
2023-05-13T18:54:42.644Z,63.75
2023-05-13T18:57:11.458Z,63.44
2023-05-13T18:59:37.782Z,63.70
2023-05-13T19:02:04.219Z,63.58
2023-05-13T19:04:30.692Z,63.71
2023-05-13T19:06:57.056Z,63.50
2023-05-13T19:09:23.391Z,63.55
2023-05-13T19:11:49.837Z,63.39
2023-05-13T19:14:16.301Z,63.10
2023-05-13T19:16:42.586Z,63.34
2023-05-13T19:19:08.868Z,63.19
2023-05-13T19:21:35.136Z,63.68
2023-05-13T19:24:01.371Z,63.11
2023-05-13T19:26:27.813Z,63.30
2023-05-13T19:28:54.665Z,63.27
2023-05-13T19:31:21.074Z,63.47
2023-05-13T19:33:47.433Z,63.25
2023-05-13T19:36:13.669Z,63.29
2023-05-13T19:38:42.430Z,63.56
2023-05-13T19:41:09.654Z,63.36
2023-05-13T19:43:35.942Z,63.57
2023-05-13T19:46:02.248Z,63.83
2023-05-13T19:48:29.887Z,63.28
2023-05-13T19:50:56.355Z,63.32
2023-05-13T19:53:26.047Z,63.70
2023-05-13T19:55:52.310Z,63.33
2023-05-13T19:58:18.571Z,63.53
2023-05-13T20:00:45.029Z,63.39
2023-05-13T20:03:14.544Z,63.42
2023-05-13T20:05:41.170Z,63.21
2023-05-13T20:08:09.242Z,63.40
2023-05-13T20:10:37.817Z,63.28
2023-05-13T20:13:04.136Z,63.21
2023-05-13T20:15:32.710Z,63.30
2023-05-13T20:17:59.106Z,63.42
2023-05-13T20:20:26.550Z,63.51
2023-05-13T20:22:52.985Z,63.33
2023-05-13T20:25:19.230Z,63.38
2023-05-13T20:27:45.462Z,63.29
2023-05-13T20:30:11.715Z,63.28
2023-05-13T20:32:37.972Z,63.37
2023-05-13T20:35:04.279Z,63.45
2023-05-13T20:37:32.715Z,63.11
2023-05-13T20:39:58.957Z,63.30
2023-05-13T20:42:25.322Z,63.31
2023-05-13T20:44:53.259Z,63.37
2023-05-13T20:47:19.557Z,63.34
2023-05-13T20:49:45.966Z,63.28
2023-05-13T20:52:12.300Z,63.09
2023-05-13T20:54:38.561Z,63.04
2023-05-13T20:57:04.887Z,63.07
2023-05-13T20:59:33.218Z,62.88
2023-05-13T21:01:59.601Z,63.00
2023-05-13T21:04:27.251Z,62.96
2023-05-13T21:06:54.038Z,62.75
2023-05-13T21:09:21.560Z,62.86
2023-05-13T21:11:48.912Z,63.12
2023-05-13T21:14:15.171Z,63.00
2023-05-13T21:16:41.867Z,62.68
2023-05-13T21:19:10.081Z,62.81
2023-05-13T21:21:39.535Z,62.58
2023-05-13T21:24:05.757Z,62.57
2023-05-13T21:26:32.060Z,62.61
2023-05-13T21:28:58.341Z,62.55
2023-05-13T21:31:25.712Z,62.45
2023-05-13T21:33:52.053Z,62.22
2023-05-13T21:36:18.373Z,62.51
2023-05-13T21:38:44.606Z,62.43
2023-05-13T21:41:10.969Z,62.35
2023-05-13T21:43:38.305Z,62.07
2023-05-13T21:46:04.617Z,62.05
2023-05-13T21:48:30.936Z,61.87
2023-05-13T21:50:57.861Z,61.62
2023-05-13T21:53:24.207Z,61.89
2023-05-13T21:55:52.077Z,61.61
2023-05-13T21:58:19.775Z,61.55
2023-05-13T22:00:47.463Z,61.96
2023-05-13T22:03:13.833Z,61.71
2023-05-13T22:05:40.094Z,61.64
2023-05-13T22:08:06.413Z,61.32
2023-05-13T22:10:32.747Z,61.45
2023-05-13T22:13:00.033Z,61.17
2023-05-13T22:15:26.307Z,61.51
2023-05-13T22:17:52.600Z,61.04
2023-05-13T22:20:19.951Z,61.19
2023-05-13T22:22:47.072Z,61.44
2023-05-13T22:25:13.301Z,61.30
2023-05-13T22:27:39.551Z,60.94
2023-05-13T22:30:05.858Z,61.11
2023-05-13T22:32:35.164Z,61.19
2023-05-13T22:35:01.481Z,60.92
2023-05-13T22:37:28.601Z,61.08
2023-05-13T22:39:56.540Z,61.00
2023-05-13T22:42:22.808Z,60.64
2023-05-13T22:44:49.089Z,61.04
2023-05-13T22:47:15.334Z,60.54
2023-05-13T22:49:43.542Z,60.83
2023-05-13T22:52:10.525Z,60.75
2023-05-13T22:54:36.899Z,60.78
2023-05-13T22:57:04.117Z,60.78
2023-05-13T22:59:30.339Z,60.58
2023-05-13T23:01:57.117Z,60.61
2023-05-13T23:04:30.572Z,60.66
2023-05-13T23:06:57.003Z,60.58
2023-05-13T23:09:23.356Z,60.29
2023-05-13T23:11:50.560Z,60.42
2023-05-13T23:14:18.457Z,60.36
2023-05-13T23:16:44.816Z,60.10
2023-05-13T23:19:11.092Z,60.38
2023-05-13T23:21:39.720Z,60.11
2023-05-13T23:24:10.268Z,60.18
2023-05-13T23:26:36.502Z,60.15
2023-05-13T23:29:07.082Z,60.08
2023-05-13T23:31:35.907Z,60.15
2023-05-13T23:34:02.157Z,59.90
2023-05-13T23:36:30.551Z,60.31
2023-05-13T23:38:56.778Z,60.31
2023-05-13T23:41:23.085Z,60.20
2023-05-13T23:43:50.786Z,59.84
2023-05-13T23:46:17.654Z,60.24
2023-05-13T23:48:43.990Z,59.88
2023-05-13T23:51:10.262Z,60.02
2023-05-13T23:53:36.481Z,60.25
2023-05-13T23:56:02.935Z,59.95
2023-05-13T23:58:29.152Z,60.18
